sensor_id;sensor_type;location;lat;lon;timestamp;P1;durP1;ratioP1;P2;durP2;ratioP2
58470;SDS011;44258;51.288;12.068;2022-12-18T00:00:58;30.50;;;13.43;;
58470;SDS011;44258;51.288;12.068;2022-12-18T00:03:25;20.65;;;9.10;;
58470;SDS011;44258;51.288;12.068;2022-12-18T00:05:54;25.95;;;11.40;;
58470;SDS011;44258;51.288;12.068;2022-12-18T00:08:20;19.35;;;8.80;;
58470;SDS011;44258;51.288;12.068;2022-12-18T00:10:47;18.45;;;8.45;;
58470;SDS011;44258;51.288;12.068;2022-12-18T00:13:14;23.75;;;9.20;;
58470;SDS011;44258;51.288;12.068;2022-12-18T00:15:40;20.48;;;7.78;;
58470;SDS011;44258;51.288;12.068;2022-12-18T00:18:07;21.55;;;9.65;;
58470;SDS011;44258;51.288;12.068;2022-12-18T00:20:38;21.45;;;8.48;;
58470;SDS011;44258;51.288;12.068;2022-12-18T00:23:07;26.55;;;9.32;;
58470;SDS011;44258;51.288;12.068;2022-12-18T00:25:34;27.58;;;9.93;;
58470;SDS011;44258;51.288;12.068;2022-12-18T00:28:06;20.20;;;8.90;;
58470;SDS011;44258;51.288;12.068;2022-12-18T00:30:32;33.60;;;10.77;;
58470;SDS011;44258;51.288;12.068;2022-12-18T00:32:59;28.75;;;10.38;;
58470;SDS011;44258;51.288;12.068;2022-12-18T00:35:25;26.70;;;11.07;;
58470;SDS011;44258;51.288;12.068;2022-12-18T00:37:52;24.55;;;9.50;;
58470;SDS011;44258;51.288;12.068;2022-12-18T00:40:21;17.73;;;7.88;;
58470;SDS011;44258;51.288;12.068;2022-12-18T00:42:48;24.48;;;8.48;;
58470;SDS011;44258;51.288;12.068;2022-12-18T00:45:25;18.58;;;7.93;;
58470;SDS011;44258;51.288;12.068;2022-12-18T00:47:55;20.98;;;8.77;;
58470;SDS011;44258;51.288;12.068;2022-12-18T00:50:23;20.80;;;9.23;;
58470;SDS011;44258;51.288;12.068;2022-12-18T00:52:50;19.75;;;7.97;;
58470;SDS011;44258;51.288;12.068;2022-12-18T00:55:17;18.73;;;7.47;;
58470;SDS011;44258;51.288;12.068;2022-12-18T00:57:46;14.43;;;6.03;;
58470;SDS011;44258;51.288;12.068;2022-12-18T01:00:17;13.73;;;7.78;;
58470;SDS011;44258;51.288;12.068;2022-12-18T01:02:44;27.85;;;10.57;;
58470;SDS011;44258;51.288;12.068;2022-12-18T01:05:11;34.83;;;9.68;;
58470;SDS011;44258;51.288;12.068;2022-12-18T01:07:39;25.23;;;7.13;;
58470;SDS011;44258;51.288;12.068;2022-12-18T01:10:06;17.60;;;8.43;;
58470;SDS011;44258;51.288;12.068;2022-12-18T01:12:33;15.45;;;7.97;;
58470;SDS011;44258;51.288;12.068;2022-12-18T01:15:02;20.50;;;7.35;;
58470;SDS011;44258;51.288;12.068;2022-12-18T01:17:30;24.27;;;8.15;;
58470;SDS011;44258;51.288;12.068;2022-12-18T01:19:57;16.10;;;9.05;;
58470;SDS011;44258;51.288;12.068;2022-12-18T01:22:24;19.17;;;7.82;;
58470;SDS011;44258;51.288;12.068;2022-12-18T01:24:50;19.42;;;7.13;;
58470;SDS011;44258;51.288;12.068;2022-12-18T01:27:17;18.17;;;7.22;;
58470;SDS011;44258;51.288;12.068;2022-12-18T01:29:44;18.45;;;6.15;;
58470;SDS011;44258;51.288;12.068;2022-12-18T01:32:12;23.42;;;9.52;;
58470;SDS011;44258;51.288;12.068;2022-12-18T01:34:39;17.75;;;6.88;;
58470;SDS011;44258;51.288;12.068;2022-12-18T01:37:06;15.43;;;6.35;;
58470;SDS011;44258;51.288;12.068;2022-12-18T01:39:33;16.60;;;7.80;;
58470;SDS011;44258;51.288;12.068;2022-12-18T01:42:00;23.17;;;8.30;;
58470;SDS011;44258;51.288;12.068;2022-12-18T01:47:36;18.35;;;6.05;;
58470;SDS011;44258;51.288;12.068;2022-12-18T01:50:07;15.90;;;7.05;;
58470;SDS011;44258;51.288;12.068;2022-12-18T01:52:36;13.07;;;7.05;;
58470;SDS011;44258;51.288;12.068;2022-12-18T01:55:06;12.48;;;6.60;;
58470;SDS011;44258;51.288;12.068;2022-12-18T01:57:33;24.33;;;7.30;;
58470;SDS011;44258;51.288;12.068;2022-12-18T02:00:03;6.40;;;4.28;;
58470;SDS011;44258;51.288;12.068;2022-12-18T02:02:35;12.40;;;5.75;;
58470;SDS011;44258;51.288;12.068;2022-12-18T02:05:02;18.50;;;7.05;;
58470;SDS011;44258;51.288;12.068;2022-12-18T02:07:32;15.70;;;7.20;;
58470;SDS011;44258;51.288;12.068;2022-12-18T02:10:10;19.65;;;7.88;;
58470;SDS011;44258;51.288;12.068;2022-12-18T02:12:42;21.70;;;7.25;;
58470;SDS011;44258;51.288;12.068;2022-12-18T02:15:15;15.73;;;5.88;;
58470;SDS011;44258;51.288;12.068;2022-12-18T02:17:52;13.93;;;4.30;;
58470;SDS011;44258;51.288;12.068;2022-12-18T02:20:23;20.90;;;5.60;;
58470;SDS011;44258;51.288;12.068;2022-12-18T02:23:01;7.88;;;5.50;;
58470;SDS011;44258;51.288;12.068;2022-12-18T02:25:43;8.57;;;3.83;;
58470;SDS011;44258;51.288;12.068;2022-12-18T02:28:36;20.65;;;7.60;;
58470;SDS011;44258;51.288;12.068;2022-12-18T02:31:07;16.40;;;6.45;;
58470;SDS011;44258;51.288;12.068;2022-12-18T02:33:41;21.60;;;8.00;;
58470;SDS011;44258;51.288;12.068;2022-12-18T02:36:11;6.38;;;4.35;;
58470;SDS011;44258;51.288;12.068;2022-12-18T02:38:41;15.02;;;5.13;;
58470;SDS011;44258;51.288;12.068;2022-12-18T02:41:10;6.60;;;3.58;;
58470;SDS011;44258;51.288;12.068;2022-12-18T02:43:39;16.20;;;6.30;;
58470;SDS011;44258;51.288;12.068;2022-12-18T02:48:59;13.45;;;5.70;;
58470;SDS011;44258;51.288;12.068;2022-12-18T02:51:33;15.25;;;5.22;;
58470;SDS011;44258;51.288;12.068;2022-12-18T02:54:14;7.68;;;4.03;;
58470;SDS011;44258;51.288;12.068;2022-12-18T02:56:50;15.10;;;5.32;;
58470;SDS011;44258;51.288;12.068;2022-12-18T02:59:23;13.52;;;4.75;;
58470;SDS011;44258;51.288;12.068;2022-12-18T03:01:57;9.88;;;5.30;;
58470;SDS011;44258;51.288;12.068;2022-12-18T03:04:28;7.40;;;2.78;;
58470;SDS011;44258;51.288;12.068;2022-12-18T03:07:01;17.33;;;4.63;;
58470;SDS011;44258;51.288;12.068;2022-12-18T03:09:31;7.93;;;4.03;;
58470;SDS011;44258;51.288;12.068;2022-12-18T03:12:02;16.30;;;5.38;;
58470;SDS011;44258;51.288;12.068;2022-12-18T03:14:59;10.27;;;4.13;;
58470;SDS011;44258;51.288;12.068;2022-12-18T03:17:30;23.60;;;7.10;;
58470;SDS011;44258;51.288;12.068;2022-12-18T03:20:00;8.23;;;4.10;;
58470;SDS011;44258;51.288;12.068;2022-12-18T03:22:30;14.95;;;5.15;;
58470;SDS011;44258;51.288;12.068;2022-12-18T03:25:00;7.07;;;4.40;;
58470;SDS011;44258;51.288;12.068;2022-12-18T03:27:28;15.38;;;6.22;;
58470;SDS011;44258;51.288;12.068;2022-12-18T03:30:02;14.48;;;4.70;;
58470;SDS011;44258;51.288;12.068;2022-12-18T03:32:33;17.23;;;5.05;;
58470;SDS011;44258;51.288;12.068;2022-12-18T03:35:06;9.65;;;4.60;;
58470;SDS011;44258;51.288;12.068;2022-12-18T03:37:36;19.42;;;7.75;;
58470;SDS011;44258;51.288;12.068;2022-12-18T03:40:03;9.85;;;4.00;;
58470;SDS011;44258;51.288;12.068;2022-12-18T03:42:32;7.32;;;4.03;;
58470;SDS011;44258;51.288;12.068;2022-12-18T03:45:08;9.35;;;5.78;;
58470;SDS011;44258;51.288;12.068;2022-12-18T03:47:38;13.40;;;4.97;;
58470;SDS011;44258;51.288;12.068;2022-12-18T03:50:14;10.82;;;5.40;;
58470;SDS011;44258;51.288;12.068;2022-12-18T03:52:46;12.23;;;5.22;;
58470;SDS011;44258;51.288;12.068;2022-12-18T03:55:17;22.35;;;7.65;;
58470;SDS011;44258;51.288;12.068;2022-12-18T03:57:47;15.93;;;5.80;;
58470;SDS011;44258;51.288;12.068;2022-12-18T04:00:17;10.70;;;4.45;;
58470;SDS011;44258;51.288;12.068;2022-12-18T04:02:46;8.27;;;4.30;;
58470;SDS011;44258;51.288;12.068;2022-12-18T04:05:17;13.15;;;4.78;;
58470;SDS011;44258;51.288;12.068;2022-12-18T04:07:45;12.38;;;5.32;;
58470;SDS011;44258;51.288;12.068;2022-12-18T04:10:15;9.82;;;4.72;;
58470;SDS011;44258;51.288;12.068;2022-12-18T04:12:42;8.50;;;4.63;;
58470;SDS011;44258;51.288;12.068;2022-12-18T04:15:09;14.18;;;7.32;;
58470;SDS011;44258;51.288;12.068;2022-12-18T04:17:39;6.80;;;3.80;;
58470;SDS011;44258;51.288;12.068;2022-12-18T04:20:13;13.05;;;4.63;;
58470;SDS011;44258;51.288;12.068;2022-12-18T04:22:39;14.77;;;6.07;;
58470;SDS011;44258;51.288;12.068;2022-12-18T04:25:06;7.03;;;3.53;;
58470;SDS011;44258;51.288;12.068;2022-12-18T04:27:34;18.08;;;6.07;;
58470;SDS011;44258;51.288;12.068;2022-12-18T04:30:01;17.80;;;5.47;;
58470;SDS011;44258;51.288;12.068;2022-12-18T04:32:28;15.05;;;4.80;;
58470;SDS011;44258;51.288;12.068;2022-12-18T04:34:57;7.40;;;3.35;;
58470;SDS011;44258;51.288;12.068;2022-12-18T04:37:23;7.68;;;4.40;;
58470;SDS011;44258;51.288;12.068;2022-12-18T04:39:50;9.77;;;4.25;;
58470;SDS011;44258;51.288;12.068;2022-12-18T04:42:16;18.45;;;4.82;;
58470;SDS011;44258;51.288;12.068;2022-12-18T04:44:43;10.57;;;3.92;;
58470;SDS011;44258;51.288;12.068;2022-12-18T04:47:10;10.77;;;4.07;;
58470;SDS011;44258;51.288;12.068;2022-12-18T04:49:37;8.32;;;4.18;;
58470;SDS011;44258;51.288;12.068;2022-12-18T04:52:06;7.53;;;3.72;;
58470;SDS011;44258;51.288;12.068;2022-12-18T04:54:34;5.05;;;3.58;;
58470;SDS011;44258;51.288;12.068;2022-12-18T04:57:01;9.70;;;4.70;;
58470;SDS011;44258;51.288;12.068;2022-12-18T04:59:28;16.08;;;5.53;;
58470;SDS011;44258;51.288;12.068;2022-12-18T05:01:55;10.25;;;4.40;;
58470;SDS011;44258;51.288;12.068;2022-12-18T05:04:22;7.43;;;3.70;;
58470;SDS011;44258;51.288;12.068;2022-12-18T05:06:49;9.73;;;4.38;;
58470;SDS011;44258;51.288;12.068;2022-12-18T05:09:17;6.93;;;3.90;;
58470;SDS011;44258;51.288;12.068;2022-12-18T05:11:44;6.50;;;3.75;;
58470;SDS011;44258;51.288;12.068;2022-12-18T05:14:11;11.48;;;3.80;;
58470;SDS011;44258;51.288;12.068;2022-12-18T05:16:38;9.10;;;3.13;;
58470;SDS011;44258;51.288;12.068;2022-12-18T05:19:05;13.07;;;4.93;;
58470;SDS011;44258;51.288;12.068;2022-12-18T05:21:31;8.75;;;3.67;;
58470;SDS011;44258;51.288;12.068;2022-12-18T05:23:58;13.02;;;4.68;;
58470;SDS011;44258;51.288;12.068;2022-12-18T05:26:26;8.43;;;2.85;;
58470;SDS011;44258;51.288;12.068;2022-12-18T05:28:53;13.90;;;5.05;;
58470;SDS011;44258;51.288;12.068;2022-12-18T05:31:20;8.45;;;3.95;;
58470;SDS011;44258;51.288;12.068;2022-12-18T05:33:47;10.23;;;3.22;;
58470;SDS011;44258;51.288;12.068;2022-12-18T05:36:15;17.23;;;3.53;;
58470;SDS011;44258;51.288;12.068;2022-12-18T05:38:42;6.95;;;3.20;;
58470;SDS011;44258;51.288;12.068;2022-12-18T05:41:09;7.40;;;4.78;;
58470;SDS011;44258;51.288;12.068;2022-12-18T05:43:37;9.32;;;3.08;;
58470;SDS011;44258;51.288;12.068;2022-12-18T05:46:05;8.68;;;5.40;;
58470;SDS011;44258;51.288;12.068;2022-12-18T05:48:32;22.73;;;6.47;;
58470;SDS011;44258;51.288;12.068;2022-12-18T05:51:03;8.70;;;3.50;;
58470;SDS011;44258;51.288;12.068;2022-12-18T05:53:31;9.60;;;3.72;;
58470;SDS011;44258;51.288;12.068;2022-12-18T05:55:59;7.68;;;4.18;;
58470;SDS011;44258;51.288;12.068;2022-12-18T05:58:27;23.90;;;4.65;;
58470;SDS011;44258;51.288;12.068;2022-12-18T06:00:55;13.95;;;4.55;;
58470;SDS011;44258;51.288;12.068;2022-12-18T06:03:23;31.90;;;4.22;;
58470;SDS011;44258;51.288;12.068;2022-12-18T06:05:50;11.00;;;4.13;;
58470;SDS011;44258;51.288;12.068;2022-12-18T06:08:17;12.38;;;4.60;;
58470;SDS011;44258;51.288;12.068;2022-12-18T06:10:48;11.30;;;4.13;;
58470;SDS011;44258;51.288;12.068;2022-12-18T06:13:17;9.82;;;4.50;;
58470;SDS011;44258;51.288;12.068;2022-12-18T06:15:43;7.57;;;3.92;;
58470;SDS011;44258;51.288;12.068;2022-12-18T06:18:12;8.05;;;3.20;;
58470;SDS011;44258;51.288;12.068;2022-12-18T06:20:39;18.08;;;5.30;;
58470;SDS011;44258;51.288;12.068;2022-12-18T06:23:06;6.40;;;3.03;;
58470;SDS011;44258;51.288;12.068;2022-12-18T06:25:33;6.20;;;3.15;;
58470;SDS011;44258;51.288;12.068;2022-12-18T06:28:03;11.13;;;2.67;;
58470;SDS011;44258;51.288;12.068;2022-12-18T06:30:29;11.75;;;5.03;;
58470;SDS011;44258;51.288;12.068;2022-12-18T06:32:56;7.95;;;3.75;;
58470;SDS011;44258;51.288;12.068;2022-12-18T06:35:24;9.07;;;3.80;;
58470;SDS011;44258;51.288;12.068;2022-12-18T06:37:51;8.25;;;2.92;;
58470;SDS011;44258;51.288;12.068;2022-12-18T06:40:17;8.65;;;2.63;;
58470;SDS011;44258;51.288;12.068;2022-12-18T06:42:44;8.32;;;2.97;;
58470;SDS011;44258;51.288;12.068;2022-12-18T06:45:11;8.73;;;4.20;;
58470;SDS011;44258;51.288;12.068;2022-12-18T06:47:38;10.02;;;3.88;;
58470;SDS011;44258;51.288;12.068;2022-12-18T06:50:05;4.65;;;2.72;;
58470;SDS011;44258;51.288;12.068;2022-12-18T06:52:33;10.10;;;3.20;;
58470;SDS011;44258;51.288;12.068;2022-12-18T06:55:00;10.60;;;4.32;;
58470;SDS011;44258;51.288;12.068;2022-12-18T06:57:29;8.52;;;4.10;;
58470;SDS011;44258;51.288;12.068;2022-12-18T06:59:56;7.78;;;2.88;;
58470;SDS011;44258;51.288;12.068;2022-12-18T07:02:23;25.20;;;4.70;;
58470;SDS011;44258;51.288;12.068;2022-12-18T07:04:49;7.97;;;3.65;;
58470;SDS011;44258;51.288;12.068;2022-12-18T07:07:17;11.43;;;4.85;;
58470;SDS011;44258;51.288;12.068;2022-12-18T07:09:45;5.82;;;2.72;;
58470;SDS011;44258;51.288;12.068;2022-12-18T07:12:11;7.13;;;2.97;;
58470;SDS011;44258;51.288;12.068;2022-12-18T07:14:41;19.30;;;5.45;;
58470;SDS011;44258;51.288;12.068;2022-12-18T07:17:08;6.55;;;3.25;;
58470;SDS011;44258;51.288;12.068;2022-12-18T07:19:35;11.50;;;5.22;;
58470;SDS011;44258;51.288;12.068;2022-12-18T07:22:01;10.38;;;4.47;;
58470;SDS011;44258;51.288;12.068;2022-12-18T07:24:28;10.48;;;4.85;;
58470;SDS011;44258;51.288;12.068;2022-12-18T07:26:57;7.28;;;4.68;;
58470;SDS011;44258;51.288;12.068;2022-12-18T07:29:23;10.23;;;4.70;;
58470;SDS011;44258;51.288;12.068;2022-12-18T07:31:50;11.80;;;4.80;;
58470;SDS011;44258;51.288;12.068;2022-12-18T07:34:17;11.98;;;5.75;;
58470;SDS011;44258;51.288;12.068;2022-12-18T07:36:44;14.30;;;5.43;;
58470;SDS011;44258;51.288;12.068;2022-12-18T07:39:11;11.10;;;4.40;;
58470;SDS011;44258;51.288;12.068;2022-12-18T07:41:38;8.75;;;4.75;;
58470;SDS011;44258;51.288;12.068;2022-12-18T07:44:10;9.73;;;4.22;;
58470;SDS011;44258;51.288;12.068;2022-12-18T07:46:36;10.18;;;3.20;;
58470;SDS011;44258;51.288;12.068;2022-12-18T07:49:03;6.13;;;3.45;;
58470;SDS011;44258;51.288;12.068;2022-12-18T07:51:30;9.93;;;4.55;;
58470;SDS011;44258;51.288;12.068;2022-12-18T07:53:57;8.07;;;3.95;;
58470;SDS011;44258;51.288;12.068;2022-12-18T07:56:24;6.15;;;4.28;;
58470;SDS011;44258;51.288;12.068;2022-12-18T07:58:50;6.90;;;3.80;;
58470;SDS011;44258;51.288;12.068;2022-12-18T08:01:18;10.15;;;3.80;;
58470;SDS011;44258;51.288;12.068;2022-12-18T08:03:45;11.88;;;4.43;;
58470;SDS011;44258;51.288;12.068;2022-12-18T08:06:12;4.18;;;1.77;;
58470;SDS011;44258;51.288;12.068;2022-12-18T08:08:38;7.32;;;3.58;;
58470;SDS011;44258;51.288;12.068;2022-12-18T08:11:06;18.23;;;4.60;;
58470;SDS011;44258;51.288;12.068;2022-12-18T08:13:33;12.68;;;4.43;;
58470;SDS011;44258;51.288;12.068;2022-12-18T08:16:00;8.18;;;3.40;;
58470;SDS011;44258;51.288;12.068;2022-12-18T08:18:31;8.85;;;3.63;;
58470;SDS011;44258;51.288;12.068;2022-12-18T08:21:06;16.85;;;4.32;;
58470;SDS011;44258;51.288;12.068;2022-12-18T08:23:35;8.65;;;5.07;;
58470;SDS011;44258;51.288;12.068;2022-12-18T08:26:01;9.73;;;4.25;;
58470;SDS011;44258;51.288;12.068;2022-12-18T08:28:28;12.63;;;5.25;;
58470;SDS011;44258;51.288;12.068;2022-12-18T08:30:55;12.32;;;5.22;;
58470;SDS011;44258;51.288;12.068;2022-12-18T08:33:23;9.73;;;4.90;;
58470;SDS011;44258;51.288;12.068;2022-12-18T08:35:51;9.82;;;4.82;;
58470;SDS011;44258;51.288;12.068;2022-12-18T08:38:18;20.00;;;6.65;;
58470;SDS011;44258;51.288;12.068;2022-12-18T08:40:45;11.57;;;4.57;;
58470;SDS011;44258;51.288;12.068;2022-12-18T08:43:11;6.38;;;3.25;;
58470;SDS011;44258;51.288;12.068;2022-12-18T08:45:55;8.05;;;4.05;;
58470;SDS011;44258;51.288;12.068;2022-12-18T08:48:23;11.10;;;4.40;;
58470;SDS011;44258;51.288;12.068;2022-12-18T08:50:55;7.30;;;3.95;;
58470;SDS011;44258;51.288;12.068;2022-12-18T08:53:21;11.88;;;5.65;;
58470;SDS011;44258;51.288;12.068;2022-12-18T08:55:49;9.25;;;3.92;;
58470;SDS011;44258;51.288;12.068;2022-12-18T08:58:15;10.68;;;5.38;;
58470;SDS011;44258;51.288;12.068;2022-12-18T09:00:42;15.65;;;7.22;;
58470;SDS011;44258;51.288;12.068;2022-12-18T09:03:10;15.63;;;7.40;;
58470;SDS011;44258;51.288;12.068;2022-12-18T09:05:39;16.35;;;6.10;;
58470;SDS011;44258;51.288;12.068;2022-12-18T09:08:07;13.90;;;5.15;;
58470;SDS011;44258;51.288;12.068;2022-12-18T09:10:40;31.77;;;10.30;;
58470;SDS011;44258;51.288;12.068;2022-12-18T09:13:09;14.07;;;6.55;;
58470;SDS011;44258;51.288;12.068;2022-12-18T09:15:39;19.63;;;6.07;;
58470;SDS011;44258;51.288;12.068;2022-12-18T09:18:06;16.20;;;6.68;;
58470;SDS011;44258;51.288;12.068;2022-12-18T09:20:34;14.80;;;6.75;;
58470;SDS011;44258;51.288;12.068;2022-12-18T09:23:01;16.00;;;6.20;;
58470;SDS011;44258;51.288;12.068;2022-12-18T09:25:30;24.58;;;9.85;;
58470;SDS011;44258;51.288;12.068;2022-12-18T09:27:58;23.20;;;9.20;;
58470;SDS011;44258;51.288;12.068;2022-12-18T09:30:25;13.15;;;6.07;;
58470;SDS011;44258;51.288;12.068;2022-12-18T09:32:53;24.38;;;8.38;;
58470;SDS011;44258;51.288;12.068;2022-12-18T09:35:19;17.98;;;6.13;;
58470;SDS011;44258;51.288;12.068;2022-12-18T09:37:47;21.30;;;8.35;;
58470;SDS011;44258;51.288;12.068;2022-12-18T09:40:14;21.35;;;7.10;;
58470;SDS011;44258;51.288;12.068;2022-12-18T09:42:42;21.25;;;8.73;;
58470;SDS011;44258;51.288;12.068;2022-12-18T09:45:13;35.05;;;15.38;;
58470;SDS011;44258;51.288;12.068;2022-12-18T09:47:42;29.42;;;12.75;;
58470;SDS011;44258;51.288;12.068;2022-12-18T09:50:16;43.45;;;17.52;;
58470;SDS011;44258;51.288;12.068;2022-12-18T09:52:51;29.80;;;10.55;;
58470;SDS011;44258;51.288;12.068;2022-12-18T09:55:22;27.60;;;10.50;;
58470;SDS011;44258;51.288;12.068;2022-12-18T09:57:55;19.25;;;8.00;;
58470;SDS011;44258;51.288;12.068;2022-12-18T10:00:26;23.05;;;9.20;;
58470;SDS011;44258;51.288;12.068;2022-12-18T10:02:53;21.40;;;9.55;;
58470;SDS011;44258;51.288;12.068;2022-12-18T10:05:29;19.27;;;8.45;;
58470;SDS011;44258;51.288;12.068;2022-12-18T10:08:04;25.00;;;8.73;;
58470;SDS011;44258;51.288;12.068;2022-12-18T10:10:38;26.33;;;11.02;;
58470;SDS011;44258;51.288;12.068;2022-12-18T10:13:14;20.02;;;8.52;;
58470;SDS011;44258;51.288;12.068;2022-12-18T10:15:51;30.88;;;12.50;;
58470;SDS011;44258;51.288;12.068;2022-12-18T10:18:27;20.40;;;7.65;;
58470;SDS011;44258;51.288;12.068;2022-12-18T10:21:04;20.27;;;8.13;;
58470;SDS011;44258;51.288;12.068;2022-12-18T10:23:40;18.70;;;8.38;;
58470;SDS011;44258;51.288;12.068;2022-12-18T10:26:12;31.85;;;14.43;;
58470;SDS011;44258;51.288;12.068;2022-12-18T10:28:40;21.10;;;9.15;;
58470;SDS011;44258;51.288;12.068;2022-12-18T10:31:10;28.50;;;11.32;;
58470;SDS011;44258;51.288;12.068;2022-12-18T10:33:42;18.35;;;6.95;;
58470;SDS011;44258;51.288;12.068;2022-12-18T10:36:09;30.88;;;8.10;;
58470;SDS011;44258;51.288;12.068;2022-12-18T10:38:36;16.73;;;6.55;;
58470;SDS011;44258;51.288;12.068;2022-12-18T10:41:04;20.10;;;8.98;;
58470;SDS011;44258;51.288;12.068;2022-12-18T10:43:35;18.80;;;6.82;;
58470;SDS011;44258;51.288;12.068;2022-12-18T10:46:15;23.17;;;8.60;;
58470;SDS011;44258;51.288;12.068;2022-12-18T10:48:50;25.25;;;7.70;;
58470;SDS011;44258;51.288;12.068;2022-12-18T10:51:23;22.83;;;8.80;;
58470;SDS011;44258;51.288;12.068;2022-12-18T10:53:55;16.30;;;6.20;;
58470;SDS011;44258;51.288;12.068;2022-12-18T10:56:24;20.00;;;7.70;;
58470;SDS011;44258;51.288;12.068;2022-12-18T10:58:58;24.08;;;9.45;;
58470;SDS011;44258;51.288;12.068;2022-12-18T11:01:28;19.38;;;6.78;;
58470;SDS011;44258;51.288;12.068;2022-12-18T11:04:13;16.38;;;6.97;;
58470;SDS011;44258;51.288;12.068;2022-12-18T11:06:52;16.90;;;6.80;;
58470;SDS011;44258;51.288;12.068;2022-12-18T11:09:21;21.73;;;8.18;;
58470;SDS011;44258;51.288;12.068;2022-12-18T11:11:49;16.58;;;7.25;;
58470;SDS011;44258;51.288;12.068;2022-12-18T11:14:20;15.73;;;5.47;;
58470;SDS011;44258;51.288;12.068;2022-12-18T11:16:50;17.05;;;6.32;;
58470;SDS011;44258;51.288;12.068;2022-12-18T11:19:25;14.50;;;5.93;;
58470;SDS011;44258;51.288;12.068;2022-12-18T11:21:59;16.17;;;7.50;;
58470;SDS011;44258;51.288;12.068;2022-12-18T11:24:29;17.38;;;7.47;;
58470;SDS011;44258;51.288;12.068;2022-12-18T11:27:01;21.42;;;7.40;;
58470;SDS011;44258;51.288;12.068;2022-12-18T11:29:33;22.02;;;9.50;;
58470;SDS011;44258;51.288;12.068;2022-12-18T11:32:22;16.48;;;7.03;;
58470;SDS011;44258;51.288;12.068;2022-12-18T11:34:58;19.30;;;7.93;;
58470;SDS011;44258;51.288;12.068;2022-12-18T11:37:28;19.33;;;7.00;;
58470;SDS011;44258;51.288;12.068;2022-12-18T11:39:56;15.07;;;7.60;;
58470;SDS011;44258;51.288;12.068;2022-12-18T11:42:27;16.27;;;7.40;;
58470;SDS011;44258;51.288;12.068;2022-12-18T11:45:03;21.13;;;7.65;;
58470;SDS011;44258;51.288;12.068;2022-12-18T11:47:49;19.58;;;7.88;;
58470;SDS011;44258;51.288;12.068;2022-12-18T11:50:22;21.52;;;8.30;;
58470;SDS011;44258;51.288;12.068;2022-12-18T11:52:51;18.30;;;7.93;;
58470;SDS011;44258;51.288;12.068;2022-12-18T11:55:19;18.05;;;8.15;;
58470;SDS011;44258;51.288;12.068;2022-12-18T11:57:55;19.75;;;7.40;;
58470;SDS011;44258;51.288;12.068;2022-12-18T12:00:30;22.92;;;9.02;;
58470;SDS011;44258;51.288;12.068;2022-12-18T12:03:06;21.15;;;8.77;;
58470;SDS011;44258;51.288;12.068;2022-12-18T12:05:45;16.88;;;7.43;;
58470;SDS011;44258;51.288;12.068;2022-12-18T12:08:21;17.77;;;7.95;;
58470;SDS011;44258;51.288;12.068;2022-12-18T12:10:58;19.35;;;7.45;;
58470;SDS011;44258;51.288;12.068;2022-12-18T12:13:37;19.13;;;7.40;;
58470;SDS011;44258;51.288;12.068;2022-12-18T12:16:13;16.63;;;7.18;;
58470;SDS011;44258;51.288;12.068;2022-12-18T12:18:56;18.20;;;8.07;;
58470;SDS011;44258;51.288;12.068;2022-12-18T12:21:34;23.02;;;8.13;;
58470;SDS011;44258;51.288;12.068;2022-12-18T12:24:07;16.08;;;8.00;;
58470;SDS011;44258;51.288;12.068;2022-12-18T12:26:49;15.40;;;7.50;;
58470;SDS011;44258;51.288;12.068;2022-12-18T12:29:27;31.27;;;12.15;;
58470;SDS011;44258;51.288;12.068;2022-12-18T12:32:05;26.30;;;10.27;;
58470;SDS011;44258;51.288;12.068;2022-12-18T12:34:44;20.85;;;8.27;;
58470;SDS011;44258;51.288;12.068;2022-12-18T12:37:24;23.13;;;10.43;;
58470;SDS011;44258;51.288;12.068;2022-12-18T12:39:59;20.25;;;9.13;;
58470;SDS011;44258;51.288;12.068;2022-12-18T12:42:29;19.80;;;9.30;;
58470;SDS011;44258;51.288;12.068;2022-12-18T12:45:19;18.85;;;8.57;;
58470;SDS011;44258;51.288;12.068;2022-12-18T12:47:52;17.55;;;7.80;;
58470;SDS011;44258;51.288;12.068;2022-12-18T12:50:22;16.83;;;7.03;;
58470;SDS011;44258;51.288;12.068;2022-12-18T12:52:51;17.92;;;6.88;;
58470;SDS011;44258;51.288;12.068;2022-12-18T12:55:20;19.02;;;7.80;;
58470;SDS011;44258;51.288;12.068;2022-12-18T12:57:51;18.10;;;7.28;;
58470;SDS011;44258;51.288;12.068;2022-12-18T13:00:26;17.70;;;7.75;;
58470;SDS011;44258;51.288;12.068;2022-12-18T13:02:56;25.40;;;8.90;;
58470;SDS011;44258;51.288;12.068;2022-12-18T13:05:33;21.40;;;8.70;;
58470;SDS011;44258;51.288;12.068;2022-12-18T13:08:05;20.67;;;8.80;;
58470;SDS011;44258;51.288;12.068;2022-12-18T13:10:34;17.92;;;7.10;;
58470;SDS011;44258;51.288;12.068;2022-12-18T13:13:02;16.10;;;6.70;;
58470;SDS011;44258;51.288;12.068;2022-12-18T13:15:31;14.80;;;6.68;;
58470;SDS011;44258;51.288;12.068;2022-12-18T13:18:03;16.00;;;5.90;;
58470;SDS011;44258;51.288;12.068;2022-12-18T13:20:36;16.08;;;6.63;;
58470;SDS011;44258;51.288;12.068;2022-12-18T13:23:19;18.70;;;7.00;;
58470;SDS011;44258;51.288;12.068;2022-12-18T13:25:51;17.45;;;6.75;;
58470;SDS011;44258;51.288;12.068;2022-12-18T13:28:20;16.95;;;7.05;;
58470;SDS011;44258;51.288;12.068;2022-12-18T13:30:50;15.95;;;6.50;;
58470;SDS011;44258;51.288;12.068;2022-12-18T13:36:14;14.93;;;6.53;;
58470;SDS011;44258;51.288;12.068;2022-12-18T13:41:47;15.68;;;6.03;;
58470;SDS011;44258;51.288;12.068;2022-12-18T13:44:21;17.30;;;6.25;;
58470;SDS011;44258;51.288;12.068;2022-12-18T13:46:51;17.55;;;7.28;;
58470;SDS011;44258;51.288;12.068;2022-12-18T13:49:20;12.90;;;6.07;;
58470;SDS011;44258;51.288;12.068;2022-12-18T13:51:52;15.63;;;6.43;;
58470;SDS011;44258;51.288;12.068;2022-12-18T13:54:22;14.25;;;5.38;;
58470;SDS011;44258;51.288;12.068;2022-12-18T13:57:00;19.00;;;6.95;;
58470;SDS011;44258;51.288;12.068;2022-12-18T13:59:33;21.33;;;7.80;;
58470;SDS011;44258;51.288;12.068;2022-12-18T14:02:05;16.80;;;6.68;;
58470;SDS011;44258;51.288;12.068;2022-12-18T14:04:39;15.98;;;6.90;;
58470;SDS011;44258;51.288;12.068;2022-12-18T14:07:10;16.27;;;6.97;;
58470;SDS011;44258;51.288;12.068;2022-12-18T14:09:39;14.50;;;6.15;;
58470;SDS011;44258;51.288;12.068;2022-12-18T14:12:12;17.63;;;7.22;;
58470;SDS011;44258;51.288;12.068;2022-12-18T14:15:00;15.65;;;7.10;;
58470;SDS011;44258;51.288;12.068;2022-12-18T14:17:26;18.85;;;6.57;;
58470;SDS011;44258;51.288;12.068;2022-12-18T14:19:54;17.30;;;6.72;;
58470;SDS011;44258;51.288;12.068;2022-12-18T14:22:23;17.77;;;7.22;;
58470;SDS011;44258;51.288;12.068;2022-12-18T14:25:05;15.68;;;6.43;;
58470;SDS011;44258;51.288;12.068;2022-12-18T14:27:41;22.38;;;8.27;;
58470;SDS011;44258;51.288;12.068;2022-12-18T14:30:22;15.10;;;5.90;;
58470;SDS011;44258;51.288;12.068;2022-12-18T14:32:59;17.58;;;6.60;;
58470;SDS011;44258;51.288;12.068;2022-12-18T14:35:26;19.00;;;6.88;;
58470;SDS011;44258;51.288;12.068;2022-12-18T14:37:55;18.90;;;7.82;;
58470;SDS011;44258;51.288;12.068;2022-12-18T14:40:57;15.73;;;6.47;;
58470;SDS011;44258;51.288;12.068;2022-12-18T14:43:26;18.60;;;7.72;;
58470;SDS011;44258;51.288;12.068;2022-12-18T14:45:54;19.10;;;8.15;;
58470;SDS011;44258;51.288;12.068;2022-12-18T14:48:25;20.48;;;7.68;;
58470;SDS011;44258;51.288;12.068;2022-12-18T14:51:01;17.75;;;6.95;;
58470;SDS011;44258;51.288;12.068;2022-12-18T14:53:37;16.00;;;6.63;;